sensor_id;sensor_type;location;lat;lon;timestamp;temperature;humidity
70068;DHT22;57425;51.616;6.680;2024-03-23T00:52:16;11.40;80.50
70068;DHT22;57425;51.616;6.680;2024-03-23T00:54:42;11.30;80.40
70068;DHT22;57425;51.616;6.680;2024-03-23T00:57:08;11.30;80.40
70068;DHT22;57425;51.616;6.680;2024-03-23T00:59:34;11.30;80.40
70068;DHT22;57425;51.616;6.680;2024-03-23T01:01:59;11.30;80.40
70068;DHT22;57425;51.616;6.680;2024-03-23T01:04:25;11.30;80.40
70068;DHT22;57425;51.616;6.680;2024-03-23T01:06:50;11.30;80.40
70068;DHT22;57425;51.616;6.680;2024-03-23T01:09:16;11.30;80.40
70068;DHT22;57425;51.616;6.680;2024-03-23T01:11:41;11.20;80.30
70068;DHT22;57425;51.616;6.680;2024-03-23T01:14:07;11.30;80.40
70068;DHT22;57425;51.616;6.680;2024-03-23T01:16:33;11.30;80.40
70068;DHT22;57425;51.616;6.680;2024-03-23T01:18:58;11.20;80.30
70068;DHT22;57425;51.616;6.680;2024-03-23T01:21:24;11.20;80.30
70068;DHT22;57425;51.616;6.680;2024-03-23T01:23:50;11.20;80.30
70068;DHT22;57425;51.616;6.680;2024-03-23T01:26:16;11.20;80.30
70068;DHT22;57425;51.616;6.680;2024-03-23T01:28:41;11.20;80.30
70068;DHT22;57425;51.616;6.680;2024-03-23T01:31:07;11.20;80.30
70068;DHT22;57425;51.616;6.680;2024-03-23T01:33:32;11.20;80.30
70068;DHT22;57425;51.616;6.680;2024-03-23T01:35:58;11.10;80.30
70068;DHT22;57425;51.616;6.680;2024-03-23T01:38:24;11.10;80.30
70068;DHT22;57425;51.616;6.680;2024-03-23T01:40:55;11.10;80.30
70068;DHT22;57425;51.616;6.680;2024-03-23T01:43:21;11.10;80.30
70068;DHT22;57425;51.616;6.680;2024-03-23T01:45:47;11.10;80.30
70068;DHT22;57425;51.616;6.680;2024-03-23T01:48:12;11.10;80.30
70068;DHT22;57425;51.616;6.680;2024-03-23T01:50:38;11.10;80.30
70068;DHT22;57425;51.616;6.680;2024-03-23T01:53:04;11.10;80.30
70068;DHT22;57425;51.616;6.680;2024-03-23T01:55:32;11.10;80.30
70068;DHT22;57425;51.616;6.680;2024-03-23T01:57:58;11.10;80.30
70068;DHT22;57425;51.616;6.680;2024-03-23T02:00:24;11.00;80.80
70068;DHT22;57425;51.616;6.680;2024-03-23T02:02:49;11.00;80.20
70068;DHT22;57425;51.616;6.680;2024-03-23T02:05:15;11.00;80.20
70068;DHT22;57425;51.616;6.680;2024-03-23T02:07:42;11.00;80.20
70068;DHT22;57425;51.616;6.680;2024-03-23T02:10:10;11.00;80.20
70068;DHT22;57425;51.616;6.680;2024-03-23T02:12:36;11.00;80.20
70068;DHT22;57425;51.616;6.680;2024-03-23T02:15:03;11.00;80.20
70068;DHT22;57425;51.616;6.680;2024-03-23T02:17:31;11.00;80.20
70068;DHT22;57425;51.616;6.680;2024-03-23T02:19:57;11.00;80.20
70068;DHT22;57425;51.616;6.680;2024-03-23T02:22:23;11.00;80.20
70068;DHT22;57425;51.616;6.680;2024-03-23T02:24:48;11.00;80.20
70068;DHT22;57425;51.616;6.680;2024-03-23T02:27:14;11.10;80.30
70068;DHT22;57425;51.616;6.680;2024-03-23T02:29:39;10.90;80.20
70068;DHT22;57425;51.616;6.680;2024-03-23T02:32:05;11.00;80.20
70068;DHT22;57425;51.616;6.680;2024-03-23T02:34:31;10.90;80.20
70068;DHT22;57425;51.616;6.680;2024-03-23T02:36:57;11.00;80.20
70068;DHT22;57425;51.616;6.680;2024-03-23T02:39:22;11.00;80.20
70068;DHT22;57425;51.616;6.680;2024-03-23T02:41:48;11.00;80.20
70068;DHT22;57425;51.616;6.680;2024-03-23T02:44:14;11.00;80.20
70068;DHT22;57425;51.616;6.680;2024-03-23T02:46:39;11.00;80.20
70068;DHT22;57425;51.616;6.680;2024-03-23T02:49:05;11.00;80.20
70068;DHT22;57425;51.616;6.680;2024-03-23T02:51:31;11.00;80.20
70068;DHT22;57425;51.616;6.680;2024-03-23T02:53:57;10.90;80.10
70068;DHT22;57425;51.616;6.680;2024-03-23T02:56:22;10.90;80.70
70068;DHT22;57425;51.616;6.680;2024-03-23T02:58:48;10.90;80.10
70068;DHT22;57425;51.616;6.680;2024-03-23T03:01:14;10.90;80.10
70068;DHT22;57425;51.616;6.680;2024-03-23T03:03:39;10.90;80.10
70068;DHT22;57425;51.616;6.680;2024-03-23T03:06:05;11.10;80.20
70068;DHT22;57425;51.616;6.680;2024-03-23T03:08:32;10.90;80.10
70068;DHT22;57425;51.616;6.680;2024-03-23T03:10:57;10.90;80.10
70068;DHT22;57425;51.616;6.680;2024-03-23T03:13:23;10.90;80.10
70068;DHT22;57425;51.616;6.680;2024-03-23T03:15:48;10.90;80.10
70068;DHT22;57425;51.616;6.680;2024-03-23T03:18:14;10.80;80.00
70068;DHT22;57425;51.616;6.680;2024-03-23T03:20:40;10.80;80.00
70068;DHT22;57425;51.616;6.680;2024-03-23T03:23:06;10.90;80.10
70068;DHT22;57425;51.616;6.680;2024-03-23T03:25:34;10.90;80.10
70068;DHT22;57425;51.616;6.680;2024-03-23T03:27:59;10.80;80.00
70068;DHT22;57425;51.616;6.680;2024-03-23T03:30:25;11.00;80.20
70068;DHT22;57425;51.616;6.680;2024-03-23T03:32:53;10.80;80.10
70068;DHT22;57425;51.616;6.680;2024-03-23T03:35:19;10.80;80.00
70068;DHT22;57425;51.616;6.680;2024-03-23T03:37:45;10.80;80.00
70068;DHT22;57425;51.616;6.680;2024-03-23T03:40:12;10.80;80.00
70068;DHT22;57425;51.616;6.680;2024-03-23T03:42:37;10.80;80.00
70068;DHT22;57425;51.616;6.680;2024-03-23T03:45:04;10.70;79.90
70068;DHT22;57425;51.616;6.680;2024-03-23T03:47:30;10.70;79.90
70068;DHT22;57425;51.616;6.680;2024-03-23T03:49:55;10.70;79.90
70068;DHT22;57425;51.616;6.680;2024-03-23T03:52:21;10.70;79.90
70068;DHT22;57425;51.616;6.680;2024-03-23T03:54:47;10.70;80.00
70068;DHT22;57425;51.616;6.680;2024-03-23T03:57:12;10.70;80.00
70068;DHT22;57425;51.616;6.680;2024-03-23T03:59:38;10.70;80.00
70068;DHT22;57425;51.616;6.680;2024-03-23T04:02:03;10.70;80.00
70068;DHT22;57425;51.616;6.680;2024-03-23T04:04:29;10.70;79.90
70068;DHT22;57425;51.616;6.680;2024-03-23T04:07:01;10.70;79.90
70068;DHT22;57425;51.616;6.680;2024-03-23T04:09:27;10.70;79.90
70068;DHT22;57425;51.616;6.680;2024-03-23T04:11:53;10.70;80.00
70068;DHT22;57425;51.616;6.680;2024-03-23T04:14:18;10.70;79.90
70068;DHT22;57425;51.616;6.680;2024-03-23T04:16:44;10.70;79.90
70068;DHT22;57425;51.616;6.680;2024-03-23T04:19:10;10.60;80.40
70068;DHT22;57425;51.616;6.680;2024-03-23T04:21:37;10.60;79.80
70068;DHT22;57425;51.616;6.680;2024-03-23T04:24:03;10.60;79.80
70068;DHT22;57425;51.616;6.680;2024-03-23T04:26:43;10.60;79.80
70068;DHT22;57425;51.616;6.680;2024-03-23T04:29:09;10.70;79.80
70068;DHT22;57425;51.616;6.680;2024-03-23T04:31:35;10.60;79.80
70068;DHT22;57425;51.616;6.680;2024-03-23T04:34:01;10.60;79.80
70068;DHT22;57425;51.616;6.680;2024-03-23T04:36:27;10.60;79.70
70068;DHT22;57425;51.616;6.680;2024-03-23T04:38:53;10.60;79.70
70068;DHT22;57425;51.616;6.680;2024-03-23T04:41:18;10.60;79.70
70068;DHT22;57425;51.616;6.680;2024-03-23T04:43:44;10.60;79.70
70068;DHT22;57425;51.616;6.680;2024-03-23T04:46:10;10.60;79.60
70068;DHT22;57425;51.616;6.680;2024-03-23T04:48:35;10.60;79.70
70068;DHT22;57425;51.616;6.680;2024-03-23T04:51:01;10.60;79.70
70068;DHT22;57425;51.616;6.680;2024-03-23T04:53:27;10.60;79.70
70068;DHT22;57425;51.616;6.680;2024-03-23T04:55:56;10.50;79.60
70068;DHT22;57425;51.616;6.680;2024-03-23T04:58:22;10.50;79.60
70068;DHT22;57425;51.616;6.680;2024-03-23T05:00:53;10.50;79.60
70068;DHT22;57425;51.616;6.680;2024-03-23T05:03:19;10.50;79.60
70068;DHT22;57425;51.616;6.680;2024-03-23T05:05:47;10.50;79.60
70068;DHT22;57425;51.616;6.680;2024-03-23T05:08:13;10.50;79.70
70068;DHT22;57425;51.616;6.680;2024-03-23T05:10:41;10.50;79.70
70068;DHT22;57425;51.616;6.680;2024-03-23T05:13:06;10.50;79.70
70068;DHT22;57425;51.616;6.680;2024-03-23T05:15:33;10.50;79.70
70068;DHT22;57425;51.616;6.680;2024-03-23T05:17:59;10.40;79.50
70068;DHT22;57425;51.616;6.680;2024-03-23T05:20:24;10.50;79.60
70068;DHT22;57425;51.616;6.680;2024-03-23T05:22:50;10.50;79.60
70068;DHT22;57425;51.616;6.680;2024-03-23T05:25:16;10.50;79.60
70068;DHT22;57425;51.616;6.680;2024-03-23T05:27:41;10.40;79.50
70068;DHT22;57425;51.616;6.680;2024-03-23T05:30:07;10.40;79.50
70068;DHT22;57425;51.616;6.680;2024-03-23T05:32:34;10.40;79.50
70068;DHT22;57425;51.616;6.680;2024-03-23T05:35:00;10.50;79.60
70068;DHT22;57425;51.616;6.680;2024-03-23T05:37:25;10.40;79.50
70068;DHT22;57425;51.616;6.680;2024-03-23T05:39:51;10.40;79.50
70068;DHT22;57425;51.616;6.680;2024-03-23T05:42:17;10.40;79.50
70068;DHT22;57425;51.616;6.680;2024-03-23T05:44:46;10.40;79.50
70068;DHT22;57425;51.616;6.680;2024-03-23T05:47:12;10.40;79.50
70068;DHT22;57425;51.616;6.680;2024-03-23T05:49:42;10.40;79.50
70068;DHT22;57425;51.616;6.680;2024-03-23T05:52:11;10.30;80.00
70068;DHT22;57425;51.616;6.680;2024-03-23T05:54:36;10.30;79.50
70068;DHT22;57425;51.616;6.680;2024-03-23T05:57:03;10.40;79.50
70068;DHT22;57425;51.616;6.680;2024-03-23T05:59:28;10.30;79.50
70068;DHT22;57425;51.616;6.680;2024-03-23T06:01:54;10.30;79.50
70068;DHT22;57425;51.616;6.680;2024-03-23T06:04:20;10.30;79.50
70068;DHT22;57425;51.616;6.680;2024-03-23T06:06:46;10.30;79.50
70068;DHT22;57425;51.616;6.680;2024-03-23T06:09:12;10.20;79.40
70068;DHT22;57425;51.616;6.680;2024-03-23T06:11:38;10.20;79.40
70068;DHT22;57425;51.616;6.680;2024-03-23T06:14:03;10.20;79.40
70068;DHT22;57425;51.616;6.680;2024-03-23T06:16:29;10.20;79.40
70068;DHT22;57425;51.616;6.680;2024-03-23T06:18:56;10.20;79.40
70068;DHT22;57425;51.616;6.680;2024-03-23T06:21:22;10.20;79.40
70068;DHT22;57425;51.616;6.680;2024-03-23T06:23:51;10.20;79.40
70068;DHT22;57425;51.616;6.680;2024-03-23T06:26:18;10.20;79.50
70068;DHT22;57425;51.616;6.680;2024-03-23T06:28:44;10.20;79.40
70068;DHT22;57425;51.616;6.680;2024-03-23T06:31:10;10.20;79.40
70068;DHT22;57425;51.616;6.680;2024-03-23T06:33:36;10.20;79.40
70068;DHT22;57425;51.616;6.680;2024-03-23T06:36:02;10.20;79.40
70068;DHT22;57425;51.616;6.680;2024-03-23T06:38:28;10.20;79.40
70068;DHT22;57425;51.616;6.680;2024-03-23T06:40:54;10.20;79.40
70068;DHT22;57425;51.616;6.680;2024-03-23T06:43:19;10.10;79.30
70068;DHT22;57425;51.616;6.680;2024-03-23T06:45:52;10.20;79.40
70068;DHT22;57425;51.616;6.680;2024-03-23T06:48:18;10.20;79.40
70068;DHT22;57425;51.616;6.680;2024-03-23T06:50:45;10.10;79.30
70068;DHT22;57425;51.616;6.680;2024-03-23T06:53:12;10.10;79.30
70068;DHT22;57425;51.616;6.680;2024-03-23T06:55:37;10.20;79.40
70068;DHT22;57425;51.616;6.680;2024-03-23T06:58:03;10.10;79.30
70068;DHT22;57425;51.616;6.680;2024-03-23T07:00:29;10.10;79.30
70068;DHT22;57425;51.616;6.680;2024-03-23T07:02:55;10.10;79.30
70068;DHT22;57425;51.616;6.680;2024-03-23T07:05:21;10.30;79.40
70068;DHT22;57425;51.616;6.680;2024-03-23T07:07:47;10.10;79.30
70068;DHT22;57425;51.616;6.680;2024-03-23T07:10:13;10.10;79.20
70068;DHT22;57425;51.616;6.680;2024-03-23T07:12:38;10.10;79.20
70068;DHT22;57425;51.616;6.680;2024-03-23T07:15:04;10.00;79.10
70068;DHT22;57425;51.616;6.680;2024-03-23T07:17:30;10.00;79.10
70068;DHT22;57425;51.616;6.680;2024-03-23T07:19:58;10.20;79.20
70068;DHT22;57425;51.616;6.680;2024-03-23T07:22:23;10.00;79.10
70068;DHT22;57425;51.616;6.680;2024-03-23T07:24:49;10.00;79.10
70068;DHT22;57425;51.616;6.680;2024-03-23T07:27:15;10.00;79.10
70068;DHT22;57425;51.616;6.680;2024-03-23T07:29:40;10.00;79.00
70068;DHT22;57425;51.616;6.680;2024-03-23T07:32:06;10.00;79.00
70068;DHT22;57425;51.616;6.680;2024-03-23T07:34:32;10.00;79.00
70068;DHT22;57425;51.616;6.680;2024-03-23T07:36:58;10.20;79.10
70068;DHT22;57425;51.616;6.680;2024-03-23T07:39:23;10.00;79.00
70068;DHT22;57425;51.616;6.680;2024-03-23T07:41:50;10.00;79.00
70068;DHT22;57425;51.616;6.680;2024-03-23T07:44:15;10.00;79.00
70068;DHT22;57425;51.616;6.680;2024-03-23T07:46:41;10.00;78.90
70068;DHT22;57425;51.616;6.680;2024-03-23T07:49:07;10.00;78.90
70068;DHT22;57425;51.616;6.680;2024-03-23T07:51:32;10.00;78.90
70068;DHT22;57425;51.616;6.680;2024-03-23T07:54:02;10.00;78.90
70068;DHT22;57425;51.616;6.680;2024-03-23T07:56:27;10.00;78.80
70068;DHT22;57425;51.616;6.680;2024-03-23T07:58:53;10.00;78.80
70068;DHT22;57425;51.616;6.680;2024-03-23T08:01:19;10.00;78.80
70068;DHT22;57425;51.616;6.680;2024-03-23T08:03:45;10.00;78.80
70068;DHT22;57425;51.616;6.680;2024-03-23T08:06:19;10.20;78.90
70068;DHT22;57425;51.616;6.680;2024-03-23T08:08:46;10.00;78.70
70068;DHT22;57425;51.616;6.680;2024-03-23T08:11:12;10.00;78.70
70068;DHT22;57425;51.616;6.680;2024-03-23T08:13:42;10.10;78.70
70068;DHT22;57425;51.616;6.680;2024-03-23T08:16:07;10.00;78.60
70068;DHT22;57425;51.616;6.680;2024-03-23T08:18:36;10.00;78.60
70068;DHT22;57425;51.616;6.680;2024-03-23T08:21:03;10.00;78.60
70068;DHT22;57425;51.616;6.680;2024-03-23T08:23:30;10.00;78.60
70068;DHT22;57425;51.616;6.680;2024-03-23T08:26:00;10.10;78.70
70068;DHT22;57425;51.616;6.680;2024-03-23T08:28:27;10.10;78.70
70068;DHT22;57425;51.616;6.680;2024-03-23T08:30:53;10.00;78.60
70068;DHT22;57425;51.616;6.680;2024-03-23T08:33:19;10.10;78.60
70068;DHT22;57425;51.616;6.680;2024-03-23T08:35:55;10.00;78.60
70068;DHT22;57425;51.616;6.680;2024-03-23T08:38:21;10.00;78.50
70068;DHT22;57425;51.616;6.680;2024-03-23T08:40:47;10.10;78.60
70068;DHT22;57425;51.616;6.680;2024-03-23T08:43:13;10.00;78.50
70068;DHT22;57425;51.616;6.680;2024-03-23T08:45:39;10.00;78.50
70068;DHT22;57425;51.616;6.680;2024-03-23T08:48:05;10.10;78.50
70068;DHT22;57425;51.616;6.680;2024-03-23T08:50:30;10.00;78.40
70068;DHT22;57425;51.616;6.680;2024-03-23T08:52:56;10.00;78.40
70068;DHT22;57425;51.616;6.680;2024-03-23T08:55:21;10.10;78.40
70068;DHT22;57425;51.616;6.680;2024-03-23T08:57:47;10.00;78.40
70068;DHT22;57425;51.616;6.680;2024-03-23T09:00:13;10.10;78.40
70068;DHT22;57425;51.616;6.680;2024-03-23T09:02:40;10.10;78.40
70068;DHT22;57425;51.616;6.680;2024-03-23T09:05:05;10.10;78.40
70068;DHT22;57425;51.616;6.680;2024-03-23T09:07:32;10.10;78.40
70068;DHT22;57425;51.616;6.680;2024-03-23T09:09:58;10.10;78.40
70068;DHT22;57425;51.616;6.680;2024-03-23T09:12:23;10.10;78.30
70068;DHT22;57425;51.616;6.680;2024-03-23T09:14:50;10.10;78.40
70068;DHT22;57425;51.616;6.680;2024-03-23T09:17:16;10.10;78.30
70068;DHT22;57425;51.616;6.680;2024-03-23T09:19:41;10.10;78.40
70068;DHT22;57425;51.616;6.680;2024-03-23T09:22:07;10.10;78.40
70068;DHT22;57425;51.616;6.680;2024-03-23T09:24:33;10.10;78.90
70068;DHT22;57425;51.616;6.680;2024-03-23T09:26:58;10.20;78.40
70068;DHT22;57425;51.616;6.680;2024-03-23T09:29:24;10.20;78.40
70068;DHT22;57425;51.616;6.680;2024-03-23T09:31:49;10.20;78.40
70068;DHT22;57425;51.616;6.680;2024-03-23T09:34:15;10.20;78.40
70068;DHT22;57425;51.616;6.680;2024-03-23T09:36:41;10.20;78.90
70068;DHT22;57425;51.616;6.680;2024-03-23T09:39:07;10.20;78.40
70068;DHT22;57425;51.616;6.680;2024-03-23T09:41:35;10.20;78.40
70068;DHT22;57425;51.616;6.680;2024-03-23T09:44:01;10.20;78.40
70068;DHT22;57425;51.616;6.680;2024-03-23T09:46:27;10.20;78.40
70068;DHT22;57425;51.616;6.680;2024-03-23T09:48:55;10.20;78.40
70068;DHT22;57425;51.616;6.680;2024-03-23T09:51:22;10.20;78.40
70068;DHT22;57425;51.616;6.680;2024-03-23T09:53:50;10.20;78.40
70068;DHT22;57425;51.616;6.680;2024-03-23T09:56:19;10.40;78.50
70068;DHT22;57425;51.616;6.680;2024-03-23T09:58:45;10.30;78.40
70068;DHT22;57425;51.616;6.680;2024-03-23T10:01:11;10.20;78.40
70068;DHT22;57425;51.616;6.680;2024-03-23T10:03:44;10.30;78.40
70068;DHT22;57425;51.616;6.680;2024-03-23T10:06:10;10.30;78.40
70068;DHT22;57425;51.616;6.680;2024-03-23T10:08:35;10.30;78.40
70068;DHT22;57425;51.616;6.680;2024-03-23T10:11:27;10.30;78.40
70068;DHT22;57425;51.616;6.680;2024-03-23T10:13:54;10.30;78.50
70068;DHT22;57425;51.616;6.680;2024-03-23T10:16:23;10.30;78.40
70068;DHT22;57425;51.616;6.680;2024-03-23T10:18:49;10.30;78.40
70068;DHT22;57425;51.616;6.680;2024-03-23T10:21:16;10.30;78.40
70068;DHT22;57425;51.616;6.680;2024-03-23T10:23:42;10.40;78.40
70068;DHT22;57425;51.616;6.680;2024-03-23T10:31:23;10.40;78.40
70068;DHT22;57425;51.616;6.680;2024-03-23T10:33:49;10.40;78.40
70068;DHT22;57425;51.616;6.680;2024-03-23T10:36:15;10.60;78.50
70068;DHT22;57425;51.616;6.680;2024-03-23T10:38:42;10.40;78.40
70068;DHT22;57425;51.616;6.680;2024-03-23T10:41:11;10.40;78.30
70068;DHT22;57425;51.616;6.680;2024-03-23T10:43:37;10.40;78.40
70068;DHT22;57425;51.616;6.680;2024-03-23T10:46:04;10.50;78.40
70068;DHT22;57425;51.616;6.680;2024-03-23T10:48:31;10.40;78.30
70068;DHT22;57425;51.616;6.680;2024-03-23T10:50:57;10.40;78.30
70068;DHT22;57425;51.616;6.680;2024-03-23T10:53:26;10.40;78.20
70068;DHT22;57425;51.616;6.680;2024-03-23T10:55:52;10.40;78.20
70068;DHT22;57425;51.616;6.680;2024-03-23T10:58:26;10.40;78.20
70068;DHT22;57425;51.616;6.680;2024-03-23T11:00:53;10.40;78.30
70068;DHT22;57425;51.616;6.680;2024-03-23T11:03:38;10.60;78.40
70068;DHT22;57425;51.616;6.680;2024-03-23T11:06:05;10.50;78.30
70068;DHT22;57425;51.616;6.680;2024-03-23T11:08:39;10.50;78.40
70068;DHT22;57425;51.616;6.680;2024-03-23T11:11:14;10.50;78.40
70068;DHT22;57425;51.616;6.680;2024-03-23T11:13:40;10.50;78.40
70068;DHT22;57425;51.616;6.680;2024-03-23T11:16:22;10.70;78.50
70068;DHT22;57425;51.616;6.680;2024-03-23T11:18:48;10.50;78.40
70068;DHT22;57425;51.616;6.680;2024-03-23T11:21:52;10.50;78.40
70068;DHT22;57425;51.616;6.680;2024-03-23T11:24:19;10.60;78.50
70068;DHT22;57425;51.616;6.680;2024-03-23T11:26:46;10.50;78.50
70068;DHT22;57425;51.616;6.680;2024-03-23T11:29:14;10.50;78.40
70068;DHT22;57425;51.616;6.680;2024-03-23T11:31:47;10.60;78.50
70068;DHT22;57425;51.616;6.680;2024-03-23T11:34:13;10.60;78.50
70068;DHT22;57425;51.616;6.680;2024-03-23T11:36:40;10.60;78.40
70068;DHT22;57425;51.616;6.680;2024-03-23T11:39:16;10.60;78.40
70068;DHT22;57425;51.616;6.680;2024-03-23T11:41:51;10.90;78.50
70068;DHT22;57425;51.616;6.680;2024-03-23T11:44:21;10.70;78.50
70068;DHT22;57425;51.616;6.680;2024-03-23T11:46:50;10.70;78.40
70068;DHT22;57425;51.616;6.680;2024-03-23T11:49:29;10.60;78.40
70068;DHT22;57425;51.616;6.680;2024-03-23T11:51:56;10.70;78.40
70068;DHT22;57425;51.616;6.680;2024-03-23T11:54:26;10.70;78.40
70068;DHT22;57425;51.616;6.680;2024-03-23T11:57:10;10.70;78.40
70068;DHT22;57425;51.616;6.680;2024-03-23T11:59:40;10.70;78.30
70068;DHT22;57425;51.616;6.680;2024-03-23T12:02:11;10.70;78.40
70068;DHT22;57425;51.616;6.680;2024-03-23T12:04:37;10.70;78.30
70068;DHT22;57425;51.616;6.680;2024-03-23T12:07:19;10.70;78.30
70068;DHT22;57425;51.616;6.680;2024-03-23T12:09:46;10.70;78.30
70068;DHT22;57425;51.616;6.680;2024-03-23T12:12:16;10.70;78.30
70068;DHT22;57425;51.616;6.680;2024-03-23T12:14:43;10.70;78.30
70068;DHT22;57425;51.616;6.680;2024-03-23T12:17:21;10.70;78.30
70068;DHT22;57425;51.616;6.680;2024-03-23T12:19:47;10.80;78.30
70068;DHT22;57425;51.616;6.680;2024-03-23T12:22:13;10.80;78.30
70068;DHT22;57425;51.616;6.680;2024-03-23T12:24:38;10.80;78.30
70068;DHT22;57425;51.616;6.680;2024-03-23T12:27:10;10.80;78.30
70068;DHT22;57425;51.616;6.680;2024-03-23T12:29:36;10.80;78.20
70068;DHT22;57425;51.616;6.680;2024-03-23T12:32:02;10.80;78.20
70068;DHT22;57425;51.616;6.680;2024-03-23T12:34:28;10.80;78.10
70068;DHT22;57425;51.616;6.680;2024-03-23T12:36:55;10.90;78.20
70068;DHT22;57425;51.616;6.680;2024-03-23T12:39:21;10.80;78.10
70068;DHT22;57425;51.616;6.680;2024-03-23T12:41:48;10.90;78.10
70068;DHT22;57425;51.616;6.680;2024-03-23T12:44:14;10.90;78.10
70068;DHT22;57425;51.616;6.680;2024-03-23T12:46:43;10.90;78.00
70068;DHT22;57425;51.616;6.680;2024-03-23T12:49:10;10.90;78.00
70068;DHT22;57425;51.616;6.680;2024-03-23T12:51:35;10.90;78.00
70068;DHT22;57425;51.616;6.680;2024-03-23T12:54:01;10.90;77.90
70068;DHT22;57425;51.616;6.680;2024-03-23T12:56:27;10.90;77.90
70068;DHT22;57425;51.616;6.680;2024-03-23T12:58:56;10.90;77.90
70068;DHT22;57425;51.616;6.680;2024-03-23T13:01:25;10.90;77.90
70068;DHT22;57425;51.616;6.680;2024-03-23T13:03:51;11.00;77.90
70068;DHT22;57425;51.616;6.680;2024-03-23T13:06:17;11.00;77.90
70068;DHT22;57425;51.616;6.680;2024-03-23T13:08:47;10.90;77.90
70068;DHT22;57425;51.616;6.680;2024-03-23T13:11:13;10.90;77.80
70068;DHT22;57425;51.616;6.680;2024-03-23T13:13:40;11.10;77.90
70068;DHT22;57425;51.616;6.680;2024-03-23T13:16:07;10.90;77.80
70068;DHT22;57425;51.616;6.680;2024-03-23T13:18:33;11.00;77.80
70068;DHT22;57425;51.616;6.680;2024-03-23T13:20:59;10.90;77.80
70068;DHT22;57425;51.616;6.680;2024-03-23T13:23:25;11.00;77.80
70068;DHT22;57425;51.616;6.680;2024-03-23T13:25:56;11.00;77.70
70068;DHT22;57425;51.616;6.680;2024-03-23T13:28:22;11.00;77.70
70068;DHT22;57425;51.616;6.680;2024-03-23T13:30:55;11.00;77.70
70068;DHT22;57425;51.616;6.680;2024-03-23T13:33:21;11.00;78.20
70068;DHT22;57425;51.616;6.680;2024-03-23T13:35:54;11.00;77.70
70068;DHT22;57425;51.616;6.680;2024-03-23T13:38:23;11.00;77.70
70068;DHT22;57425;51.616;6.680;2024-03-23T13:40:59;11.00;77.60
70068;DHT22;57425;51.616;6.680;2024-03-23T13:43:26;11.00;77.60
70068;DHT22;57425;51.616;6.680;2024-03-23T13:45:59;11.00;77.60
70068;DHT22;57425;51.616;6.680;2024-03-23T13:48:26;11.00;77.60
70068;DHT22;57425;51.616;6.680;2024-03-23T13:51:02;11.00;77.60
70068;DHT22;57425;51.616;6.680;2024-03-23T13:53:29;11.00;77.50
70068;DHT22;57425;51.616;6.680;2024-03-23T13:55:55;11.00;78.10
70068;DHT22;57425;51.616;6.680;2024-03-23T13:58:20;11.00;77.60
70068;DHT22;57425;51.616;6.680;2024-03-23T14:00:46;11.00;77.60
70068;DHT22;57425;51.616;6.680;2024-03-23T14:03:13;11.00;77.60
70068;DHT22;57425;51.616;6.680;2024-03-23T14:05:40;11.00;77.60
70068;DHT22;57425;51.616;6.680;2024-03-23T14:08:06;11.00;77.60
70068;DHT22;57425;51.616;6.680;2024-03-23T14:10:32;11.00;77.60
70068;DHT22;57425;51.616;6.680;2024-03-23T14:12:58;11.10;77.60
70068;DHT22;57425;51.616;6.680;2024-03-23T14:15:26;11.00;77.60
70068;DHT22;57425;51.616;6.680;2024-03-23T14:17:52;11.10;77.70
70068;DHT22;57425;51.616;6.680;2024-03-23T14:20:17;11.10;77.60
70068;DHT22;57425;51.616;6.680;2024-03-23T14:22:43;11.10;77.60
70068;DHT22;57425;51.616;6.680;2024-03-23T14:25:10;11.20;77.60
70068;DHT22;57425;51.616;6.680;2024-03-23T14:27:36;11.10;77.60
70068;DHT22;57425;51.616;6.680;2024-03-23T14:30:04;11.10;77.50
70068;DHT22;57425;51.616;6.680;2024-03-23T14:32:32;11.10;77.50
70068;DHT22;57425;51.616;6.680;2024-03-23T14:35:03;11.10;77.50
70068;DHT22;57425;51.616;6.680;2024-03-23T14:37:29;11.10;77.50
70068;DHT22;57425;51.616;6.680;2024-03-23T14:39:58;11.10;77.40
70068;DHT22;57425;51.616;6.680;2024-03-23T14:42:24;11.10;77.40
70068;DHT22;57425;51.616;6.680;2024-03-23T14:44:50;11.10;77.40
70068;DHT22;57425;51.616;6.680;2024-03-23T14:47:17;11.10;77.40
70068;DHT22;57425;51.616;6.680;2024-03-23T14:49:44;11.10;77.30
70068;DHT22;57425;51.616;6.680;2024-03-23T14:52:13;11.10;77.30
70068;DHT22;57425;51.616;6.680;2024-03-23T14:54:39;11.10;77.30
70068;DHT22;57425;51.616;6.680;2024-03-23T14:57:05;11.10;77.20
70068;DHT22;57425;51.616;6.680;2024-03-23T14:59:32;11.10;77.70
70068;DHT22;57425;51.616;6.680;2024-03-23T15:01:57;11.20;77.20
70068;DHT22;57425;51.616;6.680;2024-03-23T15:04:23;11.10;77.10
70068;DHT22;57425;51.616;6.680;2024-03-23T15:06:49;11.10;77.10
70068;DHT22;57425;51.616;6.680;2024-03-23T15:09:15;11.10;77.10
70068;DHT22;57425;51.616;6.680;2024-03-23T15:11:41;11.20;77.10
70068;DHT22;57425;51.616;6.680;2024-03-23T15:14:07;11.10;77.00
70068;DHT22;57425;51.616;6.680;2024-03-23T15:16:33;11.20;77.00
70068;DHT22;57425;51.616;6.680;2024-03-23T15:18:59;11.20;77.00
70068;DHT22;57425;51.616;6.680;2024-03-23T15:21:25;11.20;77.00
70068;DHT22;57425;51.616;6.680;2024-03-23T15:23:51;11.20;76.90
70068;DHT22;57425;51.616;6.680;2024-03-23T15:26:16;11.20;76.90
70068;DHT22;57425;51.616;6.680;2024-03-23T15:28:42;11.20;76.90
70068;DHT22;57425;51.616;6.680;2024-03-23T15:31:23;11.20;76.90
70068;DHT22;57425;51.616;6.680;2024-03-23T15:33:50;11.20;76.90
70068;DHT22;57425;51.616;6.680;2024-03-23T15:36:15;11.20;76.90
70068;DHT22;57425;51.616;6.680;2024-03-23T15:38:41;11.20;76.80
70068;DHT22;57425;51.616;6.680;2024-03-23T15:41:08;11.20;76.80
70068;DHT22;57425;51.616;6.680;2024-03-23T15:43:34;11.20;76.80
70068;DHT22;57425;51.616;6.680;2024-03-23T15:46:01;11.20;76.80
70068;DHT22;57425;51.616;6.680;2024-03-23T15:48:28;11.20;76.80
70068;DHT22;57425;51.616;6.680;2024-03-23T15:50:55;11.20;76.70
70068;DHT22;57425;51.616;6.680;2024-03-23T15:53:21;11.20;76.60
70068;DHT22;57425;51.616;6.680;2024-03-23T15:56:01;11.20;76.60
70068;DHT22;57425;51.616;6.680;2024-03-23T15:58:27;11.20;76.60
70068;DHT22;57425;51.616;6.680;2024-03-23T16:03:27;11.20;76.60
70068;DHT22;57425;51.616;6.680;2024-03-23T16:05:55;11.20;76.50
70068;DHT22;57425;51.616;6.680;2024-03-23T16:08:21;11.20;76.50
70068;DHT22;57425;51.616;6.680;2024-03-23T16:10:47;11.20;76.50
70068;DHT22;57425;51.616;6.680;2024-03-23T16:13:14;11.20;76.50
70068;DHT22;57425;51.616;6.680;2024-03-23T16:15:40;11.20;76.40
70068;DHT22;57425;51.616;6.680;2024-03-23T16:18:05;11.20;76.40
70068;DHT22;57425;51.616;6.680;2024-03-23T16:20:31;11.20;76.40
70068;DHT22;57425;51.616;6.680;2024-03-23T16:22:59;11.20;76.90
70068;DHT22;57425;51.616;6.680;2024-03-23T16:25:26;11.20;76.40
70068;DHT22;57425;51.616;6.680;2024-03-23T16:27:52;11.20;76.40